PST,Max TemperatureF,Mean TemperatureF,Min TemperatureF,Max Dew PointF,MeanDew PointF,Min DewpointF,Max Humidity, Mean Humidity, Min Humidity, Max Sea Level PressureIn, Mean Sea Level PressureIn, Min Sea Level PressureIn, Max VisibilityMiles, Mean VisibilityMiles, Min VisibilityMiles, Max Wind SpeedMPH, Mean Wind SpeedMPH, Max Gust SpeedMPH,PrecipitationIn, CloudCover, Events, WindDirDegrees
2013-1-1,57,46,36,35,27,21,79,52,24,30.30,30.23,30.18,10,10,7,7,2,,0.00,0,,281
2013-1-2,63,48,34,28,20,12,67,41,14,30.20,30.13,30.06,10,10,10,8,6,,0.00,0,,280
2013-1-3,64,49,34,26,18,11,59,35,13,30.22,30.16,30.07,10,10,10,10,6,,0.00,0,,294
2013-1-4,62,48,33,20,16,9,48,33,12,30.32,30.26,30.22,10,10,10,9,5,,0.00,0,,268
2013-1-5,62,47,32,27,18,13,52,35,15,30.35,30.26,30.17,10,10,10,6,4,,0.00,0,,278
2013-1-6,66,52,37,38,28,17,59,43,26,30.17,30.06,29.98,10,10,10,16,6,22,0.00,1,,270
2013-1-7,66,55,43,44,34,24,90,53,20,30.03,29.97,29.94,10,10,10,20,11,24,0.03,2,Rain,291
2013-1-8,75,57,39,35,30,25,65,41,17,30.09,30.03,29.96,10,10,10,8,6,,0.00,0,,273
2013-1-9,73,60,46,37,33,29,61,42,19,30.16,30.05,29.93,10,10,10,7,4,,0.00,0,,211
2013-1-10,64,55,46,44,34,25,71,48,28,30.01,29.91,29.83,10,10,9,34,11,47,0.00,0,,238
2013-1-11,57,48,39,27,20,11,53,35,16,30.15,30.07,30.02,10,10,10,14,8,18,0.00,0,,285
2013-1-12,57,46,36,30,25,20,67,46,25,30.17,30.10,30.03,10,10,10,9,5,,0.00,1,,293
2013-1-13,55,42,30,25,17,9,69,39,16,30.20,30.13,30.06,10,10,10,8,3,,0.00,2,,339
2013-1-14,51,40,30,15,6,-2,50,25,13,30.40,30.31,30.18,10,10,10,16,6,23,0.00,0,,345
2013-1-15,54,40,27,16,9,2,51,29,13,30.54,30.45,30.41,10,10,10,7,4,,0.00,0,,253
2013-1-16,64,48,33,24,18,12,48,34,18,30.44,30.34,30.24,10,10,10,10,4,,0.00,0,,280
2013-1-17,71,54,37,27,22,19,51,33,14,30.30,30.21,30.16,10,10,10,9,5,,0.00,0,,283
2013-1-18,73,57,41,27,22,17,45,31,12,30.23,30.16,30.11,10,10,8,9,4,,0.00,0,,275
2013-1-19,73,57,41,27,21,16,49,31,12,30.25,30.17,30.12,10,10,10,8,5,,0.00,0,,275
2013-1-20,75,58,41,24,19,15,42,28,11,30.17,30.10,30.03,10,10,10,8,4,,0.00,0,,276
2013-1-21,77,57,37,23,17,9,43,25,8,30.13,30.07,30.03,10,10,10,9,5,,0.00,0,,275
2013-1-22,77,58,39,28,18,10,40,25,9,30.16,30.09,30.05,10,10,10,8,3,,0.00,0,,279
2013-1-23,75,60,46,41,28,19,48,31,16,30.13,30.07,30.03,10,10,10,8,3,,0.00,1,,280
2013-1-24,72,64,57,48,44,38,64,50,33,30.17,30.12,30.05,10,10,10,9,2,,0.00,4,Rain,58
2013-1-25,66,62,57,59,53,42,100,82,53,30.15,30.05,29.97,10,8,2,13,4,,0.46,6,Rain,266
2013-1-26,66,62,57,60,58,56,100,92,75,29.96,29.91,29.87,10,8,2,9,4,,0.08,7,Rain,186
2013-1-27,66,60,53,59,51,33,100,81,47,29.98,29.94,29.87,10,6,0,26,9,36,0.00,3,Fog,172
2013-1-28,62,53,44,39,34,26,68,50,26,30.13,30.04,29.97,10,10,10,25,11,32,0.00,1,,281
2013-1-29,64,52,39,39,35,31,76,53,30,30.22,30.14,30.07,10,10,10,9,5,,0.00,0,,251
2013-1-30,68,54,39,43,37,33,86,60,27,30.37,30.28,30.22,10,10,10,5,1,,0.00,0,,254
2013-1-31,73,58,42,43,38,35,76,54,25,30.25,30.18,30.12,10,10,10,7,3,,0.00,0,,257